createdAt,value
2019-05-13T00:00:09.882Z,9.8
2019-05-13T00:01:11.458Z,9.1
2019-05-13T00:02:14.495Z,10.1
2019-05-13T00:03:16.360Z,8.8
2019-05-13T00:04:18.234Z,9.6
2019-05-13T00:05:20.106Z,9.3
2019-05-13T00:06:24.320Z,9.5
2019-05-13T00:07:26.187Z,9.7
2019-05-13T00:08:28.066Z,9.5
2019-05-13T00:09:29.915Z,9.7
2019-05-13T00:10:31.782Z,10.1
2019-05-13T00:11:36.022Z,9.6
2019-05-13T00:12:37.881Z,10.6
2019-05-13T00:13:39.742Z,10.3
2019-05-13T00:14:43.833Z,10.1
2019-05-13T00:15:46.012Z,10.5
2019-05-13T00:16:47.891Z,9.7
2019-05-13T00:17:49.758Z,10.5
2019-05-13T00:18:53.920Z,9.7
2019-05-13T00:19:55.781Z,11.2
2019-05-13T00:20:57.372Z,10.5
2019-05-13T00:21:58.964Z,10.5
2019-05-13T00:23:00.825Z,10.4
2019-05-13T00:24:05.493Z,10
2019-05-13T00:25:07.383Z,10.2
2019-05-13T00:26:09.246Z,10.1
2019-05-13T00:27:11.113Z,10.3
2019-05-13T00:28:15.288Z,10.2
2019-05-13T00:29:17.151Z,9.4
2019-05-13T00:30:19.015Z,10.9
2019-05-13T00:31:20.613Z,10.7
2019-05-13T00:32:24.646Z,10.8
2019-05-13T00:33:26.517Z,10.6
2019-05-13T00:34:28.382Z,11
2019-05-13T00:35:30.253Z,10.4
2019-05-13T00:36:34.710Z,10.3
2019-05-13T00:37:36.586Z,11.5
2019-05-13T00:38:38.450Z,10.4
2019-05-13T00:39:40.311Z,10.2
2019-05-13T00:40:44.724Z,10.5
2019-05-13T00:41:46.591Z,10
2019-05-13T00:42:48.452Z,9.8
2019-05-13T00:43:50.040Z,11.3
2019-05-13T00:44:53.887Z,10
2019-05-13T00:45:55.764Z,10.2
2019-05-13T00:46:57.633Z,10.6
2019-05-13T00:47:59.498Z,10.6
2019-05-13T00:49:01.364Z,10.4
2019-05-13T00:50:05.134Z,10.4
2019-05-13T00:51:07.002Z,9.3
2019-05-13T00:52:08.869Z,10.5
2019-05-13T00:53:10.733Z,10.4
2019-05-13T00:54:14.678Z,10.4
2019-05-13T00:55:16.543Z,9.8
2019-05-13T00:56:18.413Z,10.3
2019-05-13T00:57:20.285Z,10.4
2019-05-13T00:58:24.542Z,9.5
2019-05-13T00:59:26.410Z,10.4
2019-05-13T01:00:28.277Z,9.5
2019-05-13T01:01:30.146Z,10.3
2019-05-13T01:02:34.248Z,10.2
2019-05-13T01:03:36.115Z,10.8
2019-05-13T01:04:37.982Z,10.3
2019-05-13T01:05:39.850Z,10.6
2019-05-13T01:06:44.507Z,10.4
2019-05-13T01:07:46.399Z,9.8
2019-05-13T01:08:48.244Z,10
2019-05-13T01:09:50.109Z,11
2019-05-13T01:10:54.124Z,10.9
2019-05-13T01:11:55.990Z,10.5
2019-05-13T01:12:57.868Z,10.5
2019-05-13T01:13:59.730Z,10.9
2019-05-13T01:15:03.906Z,10.9
2019-05-13T01:16:05.622Z,10.6
2019-05-13T01:17:07.488Z,10.7
2019-05-13T01:18:09.076Z,10.8
2019-05-13T01:19:10.678Z,11
2019-05-13T01:20:14.827Z,11.2
2019-05-13T01:21:16.418Z,11.3
2019-05-13T01:22:18.294Z,12
2019-05-13T01:23:19.870Z,10.8
2019-05-13T01:24:21.458Z,10.8
2019-05-13T01:25:25.773Z,11.6
2019-05-13T01:26:27.651Z,11.1
2019-05-13T01:27:29.513Z,11.4
2019-05-13T01:28:31.103Z,11.3
2019-05-13T01:29:35.291Z,10.8
2019-05-13T01:30:37.158Z,11.3
2019-05-13T01:31:39.024Z,11.4
2019-05-13T01:32:40.889Z,10.7
2019-05-13T01:33:45.394Z,11.4
2019-05-13T01:34:46.984Z,10.7
2019-05-13T01:35:48.850Z,10.3
2019-05-13T01:36:50.437Z,11.1
2019-05-13T01:37:54.707Z,11.3
2019-05-13T01:38:56.284Z,11
2019-05-13T01:39:58.150Z,10.2
2019-05-13T01:40:59.743Z,10.4
2019-05-13T01:42:04.031Z,10.7
2019-05-13T01:43:05.885Z,11.6
2019-05-13T01:44:07.496Z,10.6
2019-05-13T01:45:09.083Z,11
2019-05-13T01:46:13.328Z,11.3
2019-05-13T01:47:15.015Z,10.8
2019-05-13T01:48:16.608Z,10.4
2019-05-13T01:49:20.160Z,10.6
2019-05-13T01:50:24.004Z,10.6
2019-05-13T01:51:25.965Z,11.1
2019-05-13T01:52:27.833Z,10.2
2019-05-13T01:53:29.422Z,10.9
2019-05-13T01:54:33.587Z,11
2019-05-13T01:55:35.868Z,10.5
2019-05-13T01:56:37.733Z,10.9
2019-05-13T01:57:39.600Z,10.1
2019-05-13T01:58:41.465Z,10.2
2019-05-13T01:59:45.044Z,10.3
2019-05-13T02:00:46.918Z,10.5
2019-05-13T02:01:48.785Z,11.4
2019-05-13T02:02:50.369Z,11.4
2019-05-13T02:03:54.354Z,11.2
2019-05-13T02:04:56.377Z,11.3
2019-05-13T02:05:57.972Z,12.3
2019-05-13T02:06:59.836Z,11.8
2019-05-13T02:08:05.273Z,11.6
2019-05-13T02:09:06.855Z,11.4
2019-05-13T02:10:08.722Z,12.1
2019-05-13T02:11:10.590Z,11.6
2019-05-13T02:12:14.784Z,12.6
2019-05-13T02:13:16.661Z,11.4
2019-05-13T02:14:18.527Z,12.4
2019-05-13T02:15:20.112Z,11.3
2019-05-13T02:16:21.694Z,12
2019-05-13T02:17:24.966Z,11.5
2019-05-13T02:18:26.834Z,11.8
2019-05-13T02:19:28.410Z,12
2019-05-13T02:20:30.276Z,11.6
2019-05-13T02:21:34.559Z,11.4
2019-05-13T02:22:36.426Z,11.1
2019-05-13T02:23:38.301Z,11.2
2019-05-13T02:24:40.173Z,11.1
2019-05-13T02:25:44.514Z,11.1
2019-05-13T02:26:46.413Z,11.9
2019-05-13T02:27:48.270Z,12.8
2019-05-13T02:28:49.859Z,12.1
2019-05-13T02:29:53.896Z,11
2019-05-13T02:30:58.161Z,12.3
2019-05-13T02:32:03.899Z,11.8
2019-05-13T02:33:08.031Z,12.9
2019-05-13T02:34:14.029Z,10.9
2019-05-13T02:35:15.887Z,11.6
2019-05-13T02:36:17.478Z,12
2019-05-13T02:37:22.850Z,11.9
2019-05-13T02:38:36.463Z,12.8
2019-05-13T02:39:38.330Z,11.8
2019-05-13T02:40:43.643Z,11.6
2019-05-13T02:41:45.241Z,14
2019-05-13T02:42:47.115Z,12.3
2019-05-13T02:43:48.706Z,15.6
2019-05-13T02:44:54.306Z,13.1
2019-05-13T02:45:56.171Z,12.3
2019-05-13T02:46:58.037Z,12.6
2019-05-13T02:48:03.760Z,12
2019-05-13T02:49:05.694Z,13.3
2019-05-13T02:50:08.288Z,12.8
2019-05-13T02:51:13.771Z,13
2019-05-13T02:52:15.364Z,13.9
2019-05-13T02:53:17.245Z,13
2019-05-13T02:54:19.098Z,14.7
2019-05-13T02:55:23.692Z,13.1
2019-05-13T02:56:25.281Z,13.1
2019-05-13T02:57:27.145Z,14.5
2019-05-13T02:58:29.024Z,14.1
2019-05-13T02:59:34.526Z,14.3
2019-05-13T03:00:36.401Z,15.8
2019-05-13T03:01:38.274Z,13.8
2019-05-13T03:02:43.282Z,13.7
2019-05-13T03:03:46.027Z,14.7
2019-05-13T03:04:47.909Z,14
2019-05-13T03:05:53.536Z,13.8
2019-05-13T03:06:55.560Z,20.4
2019-05-13T03:07:57.428Z,14
2019-05-13T03:08:59.317Z,13.6
2019-05-13T03:10:05.719Z,15.6
2019-05-13T03:11:07.584Z,14.6
2019-05-13T03:12:13.450Z,16.7
2019-05-13T03:13:15.089Z,14.6
2019-05-13T03:14:16.951Z,14.6
2019-05-13T03:15:18.550Z,16
2019-05-13T03:16:23.501Z,16.9
2019-05-13T03:17:25.367Z,13.2
2019-05-13T03:18:27.254Z,14.2
2019-05-13T03:19:32.780Z,17
2019-05-13T03:20:34.770Z,14.4
2019-05-13T03:21:37.126Z,14.3
2019-05-13T03:22:39.046Z,14.3
2019-05-13T03:23:45.676Z,14.3
2019-05-13T03:24:47.542Z,12.7
2019-05-13T03:25:49.118Z,13.8
2019-05-13T03:26:54.705Z,15.2
2019-05-13T03:27:56.331Z,12.7
2019-05-13T03:28:57.923Z,12.4
2019-05-13T03:30:04.898Z,14
2019-05-13T03:31:08.998Z,13.6
2019-05-13T03:32:18.453Z,15.2
2019-05-13T03:33:35.512Z,14.3
2019-05-13T03:34:38.374Z,14.3
2019-05-13T03:35:47.223Z,14.9
2019-05-13T03:36:49.112Z,15
2019-05-13T03:37:54.178Z,15.8
2019-05-13T03:39:16.920Z,15.6
2019-05-13T03:40:18.585Z,15.3
2019-05-13T03:41:24.233Z,15.1
2019-05-13T03:42:26.097Z,16
2019-05-13T03:43:27.962Z,16.7
2019-05-13T03:44:33.433Z,16
2019-05-13T03:45:35.019Z,14.9
2019-05-13T03:46:36.904Z,15.4
2019-05-13T03:47:41.889Z,18
2019-05-13T03:48:44.585Z,15
2019-05-13T03:49:46.167Z,15
2019-05-13T03:50:48.043Z,14.3
2019-05-13T03:51:53.054Z,14.7
2019-05-13T03:52:54.984Z,15.1
2019-05-13T03:53:56.858Z,16.7
2019-05-13T03:54:58.718Z,15.2
2019-05-13T03:56:03.950Z,15.6
2019-05-13T03:57:05.593Z,15.3
2019-05-13T03:58:07.443Z,15.1
2019-05-13T03:59:09.311Z,17
2019-05-13T04:00:14.552Z,14.8
2019-05-13T04:01:16.418Z,15.3
2019-05-13T04:02:18.286Z,15.8
2019-05-13T04:03:23.667Z,14.7
2019-05-13T04:04:25.538Z,15.6
2019-05-13T04:05:27.400Z,15.1
2019-05-13T04:06:32.713Z,15
2019-05-13T04:07:34.338Z,15.6
2019-05-13T04:08:36.211Z,14.5
2019-05-13T04:09:37.840Z,14.5
2019-05-13T04:10:42.488Z,15.2
2019-05-13T04:11:44.062Z,14.7
2019-05-13T04:12:45.924Z,14.8
2019-05-13T04:13:47.797Z,14
2019-05-13T04:14:52.551Z,14.8
2019-05-13T04:15:54.448Z,14.6
2019-05-13T04:16:56.029Z,15.2
2019-05-13T04:17:57.896Z,15.4
2019-05-13T04:19:03.404Z,15.1
2019-05-13T04:20:05.266Z,14.4
2019-05-13T04:21:12.444Z,14.6
2019-05-13T04:22:14.824Z,15
2019-05-13T04:23:16.692Z,15
2019-05-13T04:24:18.564Z,15.2
2019-05-13T04:25:24.213Z,16.2
2019-05-13T04:26:26.078Z,15.7
2019-05-13T04:27:27.944Z,15.2
2019-05-13T04:28:33.443Z,14.8
2019-05-13T04:29:35.031Z,15.1
2019-05-13T04:30:36.609Z,15.2
2019-05-13T04:31:38.473Z,14.7
2019-05-13T04:32:43.508Z,15.1
2019-05-13T04:33:45.686Z,14.6
2019-05-13T04:34:47.562Z,17
2019-05-13T04:35:52.540Z,14.7
2019-05-13T04:36:54.777Z,14.7
2019-05-13T04:37:56.640Z,15.5
2019-05-13T04:38:58.505Z,16.1
2019-05-13T04:40:04.256Z,15
2019-05-13T04:41:06.148Z,15.1
2019-05-13T04:42:07.996Z,15.3
2019-05-13T04:43:13.396Z,16.6
2019-05-13T04:44:15.269Z,16.9
2019-05-13T04:45:17.134Z,15.7
2019-05-13T04:46:22.267Z,15.5
2019-05-13T04:47:24.332Z,15.4
2019-05-13T04:48:26.196Z,15.9
2019-05-13T04:49:28.067Z,16.5
2019-05-13T04:50:33.354Z,15.4
2019-05-13T04:51:35.279Z,15.1
2019-05-13T04:52:37.146Z,15
2019-05-13T04:53:41.880Z,15.6
2019-05-13T04:54:45.230Z,16.1
2019-05-13T04:55:47.113Z,15
2019-05-13T04:56:48.416Z,15.2
2019-05-13T04:57:54.151Z,17.3
2019-05-13T04:58:56.017Z,19.7
2019-05-13T04:59:57.905Z,16.3
2019-05-13T05:01:14.505Z,14.7
2019-05-13T05:02:16.380Z,15.6
2019-05-13T05:03:46.323Z,16.3
2019-05-13T05:04:48.335Z,14.4
2019-05-13T05:05:53.609Z,14.3
2019-05-13T05:06:55.476Z,16.7
2019-05-13T05:07:57.047Z,14.5
2019-05-13T05:08:58.643Z,18
2019-05-13T05:10:42.769Z,18.6
2019-05-13T05:11:44.784Z,16.7
2019-05-13T05:12:46.650Z,16
2019-05-13T05:13:48.524Z,17.8
2019-05-13T05:14:53.165Z,14.4
2019-05-13T05:15:55.036Z,15.8
2019-05-13T05:16:56.907Z,17.1
2019-05-13T05:17:58.775Z,15.9
2019-05-13T05:19:03.468Z,14.4
2019-05-13T05:20:05.674Z,16.2
2019-05-13T05:21:07.273Z,14
2019-05-13T05:22:08.927Z,15.6
2019-05-13T05:23:12.661Z,16.5
2019-05-13T05:24:14.578Z,14.7
2019-05-13T05:25:16.437Z,19
2019-05-13T05:26:18.334Z,20.5
2019-05-13T05:27:22.481Z,17
2019-05-13T05:28:24.347Z,18.5
2019-05-13T05:29:26.214Z,16
2019-05-13T05:30:28.079Z,18.4
2019-05-13T05:31:32.288Z,18.5
2019-05-13T05:32:37.407Z,19
2019-05-13T05:33:41.637Z,15.3
2019-05-13T05:34:43.503Z,20.3
2019-05-13T05:35:45.368Z,17.1
2019-05-13T05:36:47.237Z,18.7
2019-05-13T05:37:49.105Z,15.2
2019-05-13T05:38:52.912Z,19.3
2019-05-13T05:39:54.779Z,16.4
2019-05-13T05:40:56.646Z,19.5
2019-05-13T05:41:58.511Z,16.9
2019-05-13T05:43:02.827Z,18.8
2019-05-13T05:44:04.691Z,20.7
2019-05-13T05:45:06.268Z,17.3
2019-05-13T05:46:08.137Z,18.9
2019-05-13T05:47:12.350Z,13.3
2019-05-13T05:48:14.216Z,15
2019-05-13T05:49:16.080Z,19.1
2019-05-13T05:50:17.946Z,18.7
2019-05-13T05:51:21.859Z,14.9
2019-05-13T05:52:23.922Z,19.3
2019-05-13T05:53:25.790Z,15.2
2019-05-13T05:54:27.657Z,16.2
2019-05-13T05:55:31.585Z,15.2
2019-05-13T05:56:34.029Z,16.9
2019-05-13T05:57:35.896Z,18.6
2019-05-13T05:58:37.767Z,16.9
2019-05-13T05:59:41.785Z,18.6
2019-05-13T06:00:44.402Z,16.2
2019-05-13T06:01:46.273Z,14.6
2019-05-13T06:02:48.134Z,19.7
2019-05-13T06:03:51.859Z,16.2
2019-05-13T06:04:53.577Z,14.3
2019-05-13T06:05:55.447Z,15.5
2019-05-13T06:06:57.312Z,17.6
2019-05-13T06:07:58.889Z,18.5
2019-05-13T06:09:03.270Z,17.8
2019-05-13T06:10:05.133Z,14.2
2019-05-13T06:11:06.997Z,13.4
2019-05-13T06:12:08.862Z,15.7
2019-05-13T06:13:13.092Z,13.5
2019-05-13T06:14:14.958Z,14.8
2019-05-13T06:15:16.827Z,16.1
2019-05-13T06:16:18.693Z,14
2019-05-13T06:17:22.988Z,15.4
2019-05-13T06:18:24.852Z,16.3
2019-05-13T06:19:26.718Z,17.3
2019-05-13T06:20:28.304Z,14.9
2019-05-13T06:21:32.600Z,15
2019-05-13T06:22:34.466Z,15.2
2019-05-13T06:23:36.335Z,16.1
2019-05-13T06:24:38.200Z,17
2019-05-13T06:25:42.425Z,17.7
2019-05-13T06:26:44.318Z,14.6
2019-05-13T06:27:46.181Z,12.7
2019-05-13T06:28:47.759Z,17.4
2019-05-13T06:29:53.916Z,14.7
2019-05-13T06:30:55.779Z,13.6
2019-05-13T06:32:12.927Z,13.3
2019-05-13T06:33:16.966Z,15.6
2019-05-13T06:34:18.551Z,12.9
2019-05-13T06:35:22.745Z,12.8
2019-05-13T06:36:24.608Z,14.4
2019-05-13T06:37:26.470Z,19.1
2019-05-13T06:38:28.334Z,14.3
2019-05-13T06:39:32.573Z,15.6
2019-05-13T06:40:34.442Z,14.4
2019-05-13T06:41:36.305Z,15.2
2019-05-13T06:42:38.167Z,16.2
2019-05-13T06:43:42.264Z,13.9
2019-05-13T06:44:43.833Z,15.7
2019-05-13T06:45:45.414Z,15.4
2019-05-13T06:46:47.275Z,14.4
2019-05-13T06:47:49.138Z,13.5
2019-05-13T06:48:53.458Z,16.4
2019-05-13T06:49:55.320Z,17.6
2019-05-13T06:50:57.183Z,13.6
2019-05-13T06:52:01.429Z,14.4
2019-05-13T06:53:03.587Z,13.9
2019-05-13T06:54:05.450Z,19.4
2019-05-13T06:55:07.313Z,18.8
2019-05-13T06:56:08.605Z,18.6
2019-05-13T06:57:14.703Z,13.7
2019-05-13T06:58:16.575Z,14.5
2019-05-13T06:59:18.435Z,14.7
2019-05-13T07:00:22.988Z,19.3
2019-05-13T07:01:24.823Z,15.7
2019-05-13T07:02:26.692Z,14.5
2019-05-13T07:03:28.275Z,14.1
2019-05-13T07:04:29.582Z,15.9
2019-05-13T07:05:33.304Z,13.7
2019-05-13T07:06:35.163Z,17.7
2019-05-13T07:07:37.023Z,14.4
2019-05-13T07:08:38.884Z,16.6
2019-05-13T07:09:43.570Z,14.4
2019-05-13T07:10:45.429Z,14.1
2019-05-13T07:11:47.534Z,16.5
2019-05-13T07:12:51.567Z,14.3
2019-05-13T07:13:53.653Z,14.6
2019-05-13T07:14:55.514Z,14.5
2019-05-13T07:15:57.377Z,13.9
2019-05-13T07:17:01.584Z,15.7
2019-05-13T07:18:03.964Z,13.8
2019-05-13T07:19:05.824Z,19.4
2019-05-13T07:20:07.406Z,15.8
2019-05-13T07:21:09.277Z,15.1
2019-05-13T07:22:13.116Z,13.4
2019-05-13T07:23:14.982Z,14.5
2019-05-13T07:24:16.844Z,16.2
2019-05-13T07:25:18.706Z,16.1
2019-05-13T07:26:23.061Z,14.7
2019-05-13T07:27:24.923Z,16.5
2019-05-13T07:28:26.786Z,14.3
2019-05-13T07:29:28.655Z,13.5
2019-05-13T07:30:32.578Z,15.8
2019-05-13T07:31:34.437Z,15.7
2019-05-13T07:32:36.301Z,14
2019-05-13T07:33:38.478Z,13.3
2019-05-13T07:34:44.336Z,13.4
2019-05-13T07:35:47.673Z,13.9
2019-05-13T07:36:51.752Z,14.1
2019-05-13T07:37:53.620Z,13.7
2019-05-13T07:38:55.480Z,13.4
2019-05-13T07:39:57.343Z,13.7
2019-05-13T07:41:01.932Z,13.6
2019-05-13T07:42:06.854Z,16.7
2019-05-13T07:43:08.716Z,13.4
2019-05-13T07:44:13.155Z,12.6
2019-05-13T07:45:15.018Z,12.7
2019-05-13T07:46:16.936Z,12.4
2019-05-13T07:47:18.797Z,13
2019-05-13T07:48:28.713Z,11.9
2019-05-13T07:49:33.330Z,12.2
2019-05-13T07:50:35.281Z,12.9
2019-05-13T07:51:36.867Z,12.4
2019-05-13T07:52:38.728Z,12.9
2019-05-13T07:53:42.972Z,11.2
2019-05-13T07:54:44.835Z,12.5
2019-05-13T07:55:46.421Z,12.5
2019-05-13T07:56:48.284Z,11.5
2019-05-13T07:57:52.146Z,11.8
2019-05-13T07:58:54.002Z,12.6
2019-05-13T07:59:55.864Z,14.9
2019-05-13T08:00:57.774Z,15.5
2019-05-13T08:02:03.041Z,12.1
2019-05-13T08:03:04.911Z,14
2019-05-13T08:04:19.001Z,14.5
2019-05-13T08:05:23.932Z,12.3
2019-05-13T08:06:25.794Z,12.6
2019-05-13T08:07:27.656Z,12.3
2019-05-13T08:08:29.241Z,11.8
2019-05-13T08:09:33.544Z,12.5
2019-05-13T08:10:35.418Z,11.6
2019-05-13T08:12:14.879Z,11.9
2019-05-13T08:13:16.777Z,11.8
2019-05-13T08:14:18.638Z,11.5
2019-05-13T08:15:23.250Z,11.9
2019-05-13T08:16:25.112Z,11.8
2019-05-13T08:17:26.974Z,12
2019-05-13T08:18:28.840Z,11.3
2019-05-13T08:19:33.459Z,12.4
2019-05-13T08:20:35.320Z,11.6
2019-05-13T08:21:37.183Z,11.2
2019-05-13T08:22:39.044Z,11.7
2019-05-13T08:23:43.177Z,11.2
2019-05-13T08:24:45.035Z,11.2
2019-05-13T08:25:46.900Z,12.1
2019-05-13T08:26:54.122Z,11.6
2019-05-13T08:27:55.976Z,11
2019-05-13T08:29:06.917Z,10.9
2019-05-13T08:30:08.779Z,11.9
2019-05-13T08:31:12.972Z,11.3
2019-05-13T08:32:14.827Z,11
2019-05-13T08:33:16.690Z,11.9
2019-05-13T08:34:18.554Z,11.2
2019-05-13T08:35:23.054Z,11.5
2019-05-13T08:36:25.114Z,11.5
2019-05-13T08:37:26.967Z,12.6
2019-05-13T08:38:28.837Z,11.1
2019-05-13T08:39:42.048Z,10.3
2019-05-13T08:40:44.153Z,10.1
2019-05-13T08:41:45.740Z,12
2019-05-13T08:42:47.604Z,10.1
2019-05-13T08:43:49.467Z,10.3
2019-05-13T08:44:53.885Z,10.1
2019-05-13T08:45:57.246Z,10.3
2019-05-13T08:46:59.107Z,9.8
2019-05-13T08:48:03.102Z,10.5
2019-05-13T08:49:05.430Z,9.9
2019-05-13T08:50:07.341Z,9.8
2019-05-13T08:51:12.113Z,10.7
2019-05-13T08:52:13.995Z,9
2019-05-13T08:53:15.844Z,9.4
2019-05-13T08:54:17.712Z,9.9
2019-05-13T08:55:22.377Z,9.7
2019-05-13T08:56:24.237Z,10.1
2019-05-13T08:57:26.098Z,9.4
2019-05-13T08:58:27.959Z,9.6
2019-05-13T08:59:32.614Z,10.3
2019-05-13T09:00:34.473Z,9.7
2019-05-13T09:01:36.337Z,10
2019-05-13T09:02:38.200Z,9.6
2019-05-13T09:03:43.104Z,8.8
2019-05-13T09:04:44.965Z,8.5
2019-05-13T09:05:46.826Z,9.5
2019-05-13T09:06:48.693Z,9.3
2019-05-13T09:07:52.689Z,9.5
2019-05-13T09:08:55.986Z,9.7
2019-05-13T09:09:57.849Z,10.1
2019-05-13T09:11:03.172Z,10.3
2019-05-13T09:12:05.011Z,9.8
2019-05-13T09:13:06.876Z,9.5
2019-05-13T09:14:11.020Z,9.5
2019-05-13T09:15:13.506Z,9.1
2019-05-13T09:16:15.370Z,10
2019-05-13T09:17:17.233Z,9.2
2019-05-13T09:18:19.104Z,9.3
2019-05-13T09:19:23.051Z,8.7
2019-05-13T09:20:24.911Z,9.7
2019-05-13T09:21:26.775Z,8.6
2019-05-13T09:22:28.359Z,8.9
2019-05-13T09:23:32.837Z,9.2
2019-05-13T09:24:39.183Z,9.1
2019-05-13T09:25:42.438Z,10.1
2019-05-13T09:26:44.358Z,8.8
2019-05-13T09:27:46.235Z,9.2
2019-05-13T09:28:48.099Z,8.9
2019-05-13T09:29:52.410Z,8.8
2019-05-13T09:30:54.839Z,8.5
2019-05-13T09:31:56.696Z,8.9
2019-05-13T09:32:58.556Z,9
2019-05-13T09:34:02.808Z,9.2
2019-05-13T09:35:04.726Z,9.3
2019-05-13T09:36:06.311Z,8.6
2019-05-13T09:37:07.936Z,8.5
2019-05-13T09:38:12.291Z,8.7
2019-05-13T09:39:14.564Z,8.9
2019-05-13T09:40:16.427Z,8.3
2019-05-13T09:41:18.293Z,8.4
2019-05-13T09:42:22.569Z,9
2019-05-13T09:43:24.434Z,8.1
2019-05-13T09:44:26.015Z,7.7
2019-05-13T09:45:27.876Z,7.6
2019-05-13T09:46:32.350Z,7.5
2019-05-13T09:47:34.211Z,7.7
2019-05-13T09:48:36.105Z,7.6
2019-05-13T09:49:37.971Z,7.8
2019-05-13T09:50:42.243Z,8.2
2019-05-13T09:51:44.086Z,8.9
2019-05-13T09:52:45.963Z,7.8
2019-05-13T09:53:47.819Z,7.8
2019-05-13T09:54:51.924Z,7.1
2019-05-13T09:55:54.140Z,7.8
2019-05-13T09:56:56.005Z,7.6
2019-05-13T09:57:57.866Z,7
2019-05-13T09:59:02.172Z,7.4
2019-05-13T10:00:04.044Z,7.5
2019-05-13T10:01:05.910Z,6.9
2019-05-13T10:02:07.491Z,7.7
2019-05-13T10:03:09.354Z,8.1
2019-05-13T10:04:13.160Z,8.2
2019-05-13T10:05:15.020Z,7.6
2019-05-13T10:06:16.882Z,8
2019-05-13T10:07:18.744Z,8.5
2019-05-13T10:08:23.330Z,7.7
2019-05-13T10:09:24.912Z,9.2
2019-05-13T10:10:26.500Z,8.3
2019-05-13T10:11:28.364Z,8
2019-05-13T10:12:33.341Z,8.4
2019-05-13T10:13:35.184Z,8.1
2019-05-13T10:14:37.052Z,8.4
2019-05-13T10:15:41.777Z,7.7
2019-05-13T10:16:44.240Z,8.2
2019-05-13T10:17:46.101Z,8.3
2019-05-13T10:18:47.965Z,8.3
2019-05-13T10:19:51.833Z,8.6
2019-05-13T10:21:00.109Z,8.4
2019-05-13T10:22:01.980Z,7.8
2019-05-13T10:23:03.877Z,7.5
2019-05-13T10:24:05.982Z,7.4
2019-05-13T10:25:07.879Z,7.2
2019-05-13T10:26:14.617Z,7.3
2019-05-13T10:27:23.231Z,7.6
2019-05-13T10:28:25.094Z,7.1
2019-05-13T10:29:26.958Z,7.5
2019-05-13T10:30:28.825Z,7.6
2019-05-13T10:31:33.033Z,8.6
2019-05-13T10:32:34.894Z,7.4
2019-05-13T10:33:36.767Z,7.7
2019-05-13T10:34:38.630Z,7.6
2019-05-13T10:35:43.286Z,7.9
2019-05-13T10:36:45.345Z,7.5
2019-05-13T10:37:47.445Z,7.2
2019-05-13T10:38:49.173Z,7.3
2019-05-13T10:39:53.285Z,7.6
2019-05-13T10:40:55.156Z,7.7
2019-05-13T10:41:57.018Z,7.2
2019-05-13T10:43:01.356Z,7.5
2019-05-13T10:44:04.588Z,7.4
2019-05-13T10:45:06.165Z,7.3
2019-05-13T10:46:08.027Z,8.1
2019-05-13T10:47:12.943Z,7.5
2019-05-13T10:48:15.223Z,7.5
2019-05-13T10:49:17.273Z,6.9
2019-05-13T10:50:26.982Z,7.3
2019-05-13T10:51:32.200Z,6.8
2019-05-13T10:52:34.457Z,7.8
2019-05-13T10:53:36.040Z,6.8
2019-05-13T10:54:37.905Z,7.1
2019-05-13T10:55:41.818Z,6.6
2019-05-13T10:56:44.677Z,6.9
2019-05-13T10:57:46.541Z,6.1
2019-05-13T10:58:48.412Z,6.4
2019-05-13T10:59:53.442Z,6.5
2019-05-13T11:00:55.486Z,7.2
2019-05-13T11:01:57.467Z,7
2019-05-13T11:02:59.578Z,7
2019-05-13T11:04:04.129Z,7
2019-05-13T11:05:05.989Z,7.1
2019-05-13T11:06:07.861Z,7.1
2019-05-13T11:07:12.394Z,7.6
2019-05-13T11:08:14.260Z,7.6
2019-05-13T11:09:16.115Z,7.2
2019-05-13T11:10:17.977Z,7.4
2019-05-13T11:11:22.622Z,6.9
2019-05-13T11:12:29.840Z,7
2019-05-13T11:15:59.034Z,6.8
2019-05-13T11:17:03.122Z,7.1
2019-05-13T11:18:05.683Z,6.7
2019-05-13T11:19:07.686Z,7.1
2019-05-13T11:20:09.260Z,7.3
2019-05-13T11:21:14.271Z,6.9
2019-05-13T11:22:16.132Z,6.9
2019-05-13T11:23:17.994Z,7.7
2019-05-13T11:24:22.074Z,17.3
2019-05-13T11:25:24.415Z,7.8
2019-05-13T11:26:26.003Z,6.5
2019-05-13T11:27:27.866Z,6.4
2019-05-13T11:28:32.481Z,7.1
2019-05-13T11:29:34.343Z,6.1
2019-05-13T11:30:36.392Z,6.7
2019-05-13T11:31:38.247Z,6.9
2019-05-13T11:32:43.605Z,7.1
2019-05-13T11:33:45.461Z,7.2
2019-05-13T11:34:47.338Z,7.4
2019-05-13T11:35:49.202Z,6.7
2019-05-13T11:36:54.735Z,6.3
2019-05-13T11:37:56.597Z,6.5
2019-05-13T11:38:58.460Z,6.4
2019-05-13T11:40:03.824Z,6.6
2019-05-13T11:41:05.852Z,6.8
2019-05-13T11:42:07.462Z,6.5
2019-05-13T11:43:12.102Z,6.3
2019-05-13T11:44:18.098Z,6.4
2019-05-13T11:45:22.721Z,6.5
2019-05-13T11:46:24.567Z,6.5
2019-05-13T11:47:26.152Z,6.9
2019-05-13T11:48:27.740Z,6.3
2019-05-13T11:49:32.053Z,6.9
2019-05-13T11:50:33.926Z,6.3
2019-05-13T11:51:36.210Z,6.8
2019-05-13T11:52:38.270Z,6.7
2019-05-13T11:53:42.604Z,7.4
2019-05-13T11:54:44.456Z,6.5
2019-05-13T11:55:46.337Z,6.8
2019-05-13T11:57:07.048Z,7.3
2019-05-13T11:58:08.659Z,7.4
2019-05-13T11:59:14.483Z,6.9
2019-05-13T12:00:15.942Z,7
2019-05-13T12:01:17.522Z,6.1
2019-05-13T12:02:23.568Z,6.4
2019-05-13T12:03:25.219Z,6.5
2019-05-13T12:04:26.516Z,5.8
2019-05-13T12:05:28.482Z,6.5
2019-05-13T12:06:35.132Z,6.6
2019-05-13T12:07:37.100Z,6.8
2019-05-13T12:08:39.217Z,6.5
2019-05-13T12:09:41.086Z,6.3
2019-05-13T12:10:45.503Z,5.4
2019-05-13T12:11:47.376Z,6.5
2019-05-13T12:12:49.241Z,6.1
2019-05-13T12:13:54.390Z,6.1
2019-05-13T12:15:53.366Z,6.2
2019-05-13T12:16:55.862Z,5.7
2019-05-13T12:17:58.137Z,5.8
2019-05-13T12:19:04.390Z,5.6
2019-05-13T12:20:06.331Z,6.1
2019-05-13T12:21:08.195Z,5.9
2019-05-13T12:22:13.613Z,6.3
2019-05-13T12:23:15.537Z,6.4
2019-05-13T12:24:17.413Z,6.2
2019-05-13T12:25:22.889Z,6.1
2019-05-13T12:26:25.379Z,6
2019-05-13T12:27:26.949Z,5.7
2019-05-13T12:28:28.823Z,6.1
2019-05-13T12:29:31.096Z,5.6
2019-05-13T12:30:35.961Z,6
2019-05-13T12:31:38.078Z,6.3
2019-05-13T12:32:44.047Z,6.2
2019-05-13T12:33:45.707Z,6.2
2019-05-13T12:34:47.654Z,6.1
2019-05-13T12:35:53.900Z,6.2
2019-05-13T12:36:55.958Z,5.8
2019-05-13T12:37:57.550Z,5.7
2019-05-13T12:38:59.440Z,5.4
2019-05-13T12:40:04.646Z,6
2019-05-13T12:41:07.164Z,5.3
2019-05-13T12:42:09.323Z,5.9
2019-05-13T12:43:15.562Z,5.9
2019-05-13T12:44:17.326Z,5.4
2019-05-13T12:45:22.217Z,6
2019-05-13T12:46:25.980Z,6
2019-05-13T12:47:27.844Z,7.1
2019-05-13T12:48:29.725Z,5.5
2019-05-13T12:49:37.818Z,5.6
2019-05-13T12:50:43.584Z,4.9
2019-05-13T12:51:45.632Z,4.8
2019-05-13T12:52:47.498Z,5.3
2019-05-13T12:53:52.409Z,5.7
2019-05-13T12:54:54.701Z,6.3
2019-05-13T12:56:02.792Z,6.3
2019-05-13T12:57:16.554Z,6.1
2019-05-13T12:58:18.431Z,5.6
2019-05-13T12:59:23.059Z,5.6
2019-05-13T13:00:25.350Z,5.6
2019-05-13T13:01:27.216Z,5.9
2019-05-13T13:02:32.292Z,5.5
2019-05-13T13:03:34.145Z,5.6
2019-05-13T13:04:36.242Z,5.6
2019-05-13T13:05:38.617Z,5.8
2019-05-13T13:06:46.725Z,6.2
2019-05-13T13:08:50.474Z,5.7
2019-05-13T13:09:55.241Z,5.7
2019-05-13T13:10:56.875Z,6
2019-05-13T13:11:59.084Z,5.7
2019-05-13T13:13:03.168Z,6
2019-05-13T13:14:18.841Z,5.8
2019-05-13T13:15:49.205Z,6.2
2019-05-13T13:16:55.394Z,6.1
2019-05-13T13:17:57.258Z,5.7
2019-05-13T13:19:02.147Z,5.8
2019-05-13T13:20:16.240Z,5.5
2019-05-13T13:21:17.816Z,5.7
2019-05-13T13:22:25.695Z,5.4
2019-05-13T13:23:28.163Z,6.4
2019-05-13T13:24:33.141Z,5.8
2019-05-13T13:25:35.447Z,5.4
2019-05-13T13:26:37.312Z,5.6
2019-05-13T13:28:16.260Z,5.6
2019-05-13T13:29:18.134Z,6.2
2019-05-13T13:30:20.773Z,5.4
2019-05-13T13:31:26.804Z,6
2019-05-13T13:32:28.391Z,5.6
2019-05-13T13:33:35.269Z,5.5
2019-05-13T13:34:37.134Z,5.1
2019-05-13T13:35:44.043Z,5.1
2019-05-13T13:38:47.738Z,5.5
2019-05-13T13:39:55.447Z,5.3
2019-05-13T13:40:57.320Z,5
2019-05-13T13:41:59.223Z,4.7
2019-05-13T13:43:06.659Z,5
2019-05-13T13:44:09.350Z,4.9
2019-05-13T13:45:14.869Z,5
2019-05-13T13:46:54.317Z,5.2
2019-05-13T13:48:05.370Z,5.3
2019-05-13T13:49:07.178Z,5.1
2019-05-13T13:50:11.097Z,4.9
2019-05-13T13:51:15.785Z,5.1
2019-05-13T13:52:17.905Z,6.3
2019-05-13T13:53:26.725Z,5.4
2019-05-13T13:54:28.628Z,5.5
2019-05-13T13:55:34.156Z,5.3
2019-05-13T13:56:35.963Z,5
2019-05-13T13:57:37.827Z,4.9
2019-05-13T13:58:44.336Z,5.3
2019-05-13T14:01:06.818Z,5.4
2019-05-13T14:02:14.812Z,6.1
2019-05-13T14:03:16.673Z,5.8
2019-05-13T14:04:18.262Z,5.9
2019-05-13T14:05:25.135Z,5.4
2019-05-13T14:07:42.908Z,5.5
2019-05-13T14:08:44.488Z,4.9
2019-05-13T14:09:46.173Z,5.1
2019-05-13T14:10:48.038Z,5.7
2019-05-13T14:11:52.505Z,5.5
2019-05-13T14:12:54.370Z,6.2
2019-05-13T14:13:56.232Z,7.2
2019-05-13T14:14:58.096Z,30.6
2019-05-13T14:16:02.782Z,6.2
2019-05-13T14:17:04.645Z,5.4
2019-05-13T14:18:06.506Z,5.3
2019-05-13T14:19:07.815Z,5.4
2019-05-13T14:20:09.685Z,5.7
2019-05-13T14:21:12.223Z,6.4
2019-05-13T14:22:14.307Z,6
2019-05-13T14:23:16.171Z,6.4
2019-05-13T14:24:17.742Z,5.7
2019-05-13T14:25:22.120Z,6
2019-05-13T14:26:24.248Z,6.4
2019-05-13T14:27:26.112Z,5.8